sensor_id;sensor_type;location;lat;lon;timestamp;temperature;humidity
18906;DHT22;9585;51.018;4.282;2023-09-08T00:01:19;18.00;99.90
18906;DHT22;9585;51.018;4.282;2023-09-08T00:03:47;18.00;99.90
18906;DHT22;9585;51.018;4.282;2023-09-08T00:06:14;17.90;99.90
18906;DHT22;9585;51.018;4.282;2023-09-08T00:08:42;17.90;99.90
18906;DHT22;9585;51.018;4.282;2023-09-08T00:11:12;17.90;99.90
18906;DHT22;9585;51.018;4.282;2023-09-08T00:13:40;17.90;99.90
18906;DHT22;9585;51.018;4.282;2023-09-08T00:16:07;17.90;99.90
18906;DHT22;9585;51.018;4.282;2023-09-08T00:18:35;18.00;99.90
18906;DHT22;9585;51.018;4.282;2023-09-08T00:21:03;18.00;99.90
18906;DHT22;9585;51.018;4.282;2023-09-08T00:23:31;17.90;99.90
18906;DHT22;9585;51.018;4.282;2023-09-08T00:25:59;17.90;99.90
18906;DHT22;9585;51.018;4.282;2023-09-08T00:28:28;17.90;99.90
18906;DHT22;9585;51.018;4.282;2023-09-08T00:30:55;17.90;99.90
18906;DHT22;9585;51.018;4.282;2023-09-08T00:33:23;17.90;99.90
18906;DHT22;9585;51.018;4.282;2023-09-08T00:35:51;17.80;99.90
18906;DHT22;9585;51.018;4.282;2023-09-08T00:38:19;17.80;99.90
18906;DHT22;9585;51.018;4.282;2023-09-08T00:40:46;17.80;99.90
18906;DHT22;9585;51.018;4.282;2023-09-08T00:43:14;17.70;99.90
18906;DHT22;9585;51.018;4.282;2023-09-08T00:45:45;17.70;99.90
18906;DHT22;9585;51.018;4.282;2023-09-08T00:48:14;17.60;99.90
18906;DHT22;9585;51.018;4.282;2023-09-08T00:50:42;17.60;99.90
18906;DHT22;9585;51.018;4.282;2023-09-08T00:53:10;17.60;99.90
18906;DHT22;9585;51.018;4.282;2023-09-08T00:55:39;17.60;99.90
18906;DHT22;9585;51.018;4.282;2023-09-08T00:58:07;17.50;99.90
18906;DHT22;9585;51.018;4.282;2023-09-08T01:00:35;17.50;99.90
18906;DHT22;9585;51.018;4.282;2023-09-08T01:03:05;17.50;99.90
18906;DHT22;9585;51.018;4.282;2023-09-08T01:05:33;17.40;99.90
18906;DHT22;9585;51.018;4.282;2023-09-08T01:08:02;17.30;99.90
18906;DHT22;9585;51.018;4.282;2023-09-08T01:10:29;17.30;99.90
18906;DHT22;9585;51.018;4.282;2023-09-08T01:12:57;17.30;99.90
18906;DHT22;9585;51.018;4.282;2023-09-08T01:15:25;17.30;99.90
18906;DHT22;9585;51.018;4.282;2023-09-08T01:17:53;17.30;99.90
18906;DHT22;9585;51.018;4.282;2023-09-08T01:20:25;17.30;99.90
18906;DHT22;9585;51.018;4.282;2023-09-08T01:23:17;17.30;99.90
18906;DHT22;9585;51.018;4.282;2023-09-08T01:25:51;17.30;99.90
18906;DHT22;9585;51.018;4.282;2023-09-08T01:28:20;17.30;99.90
18906;DHT22;9585;51.018;4.282;2023-09-08T01:30:50;17.30;99.90
18906;DHT22;9585;51.018;4.282;2023-09-08T01:33:18;17.30;99.90
18906;DHT22;9585;51.018;4.282;2023-09-08T01:35:46;17.30;99.90
18906;DHT22;9585;51.018;4.282;2023-09-08T01:38:14;17.20;99.90
18906;DHT22;9585;51.018;4.282;2023-09-08T01:40:42;17.20;99.90
18906;DHT22;9585;51.018;4.282;2023-09-08T01:43:12;17.20;99.90
18906;DHT22;9585;51.018;4.282;2023-09-08T01:45:40;17.20;99.90
18906;DHT22;9585;51.018;4.282;2023-09-08T01:48:08;17.20;99.90
18906;DHT22;9585;51.018;4.282;2023-09-08T01:50:35;17.20;99.90
18906;DHT22;9585;51.018;4.282;2023-09-08T01:53:03;17.20;99.90
18906;DHT22;9585;51.018;4.282;2023-09-08T01:55:31;17.20;99.90
18906;DHT22;9585;51.018;4.282;2023-09-08T01:57:59;17.20;99.90
18906;DHT22;9585;51.018;4.282;2023-09-08T02:00:28;17.10;99.90
18906;DHT22;9585;51.018;4.282;2023-09-08T02:02:56;17.10;99.90
18906;DHT22;9585;51.018;4.282;2023-09-08T02:05:24;17.10;99.90
18906;DHT22;9585;51.018;4.282;2023-09-08T02:07:52;17.10;99.90
18906;DHT22;9585;51.018;4.282;2023-09-08T02:10:21;17.10;99.90
18906;DHT22;9585;51.018;4.282;2023-09-08T02:12:49;17.10;99.90
18906;DHT22;9585;51.018;4.282;2023-09-08T02:15:17;17.10;99.90
18906;DHT22;9585;51.018;4.282;2023-09-08T02:17:50;17.10;99.90
18906;DHT22;9585;51.018;4.282;2023-09-08T02:20:18;17.10;99.90
18906;DHT22;9585;51.018;4.282;2023-09-08T02:22:45;17.00;99.90
18906;DHT22;9585;51.018;4.282;2023-09-08T02:25:16;17.10;99.90
18906;DHT22;9585;51.018;4.282;2023-09-08T02:27:44;17.00;99.90
18906;DHT22;9585;51.018;4.282;2023-09-08T02:30:12;17.00;99.90
18906;DHT22;9585;51.018;4.282;2023-09-08T02:32:39;17.00;99.90
18906;DHT22;9585;51.018;4.282;2023-09-08T02:35:10;16.90;99.90
18906;DHT22;9585;51.018;4.282;2023-09-08T02:37:38;17.00;99.90
18906;DHT22;9585;51.018;4.282;2023-09-08T02:40:07;16.90;99.90
18906;DHT22;9585;51.018;4.282;2023-09-08T02:42:35;16.90;99.90
18906;DHT22;9585;51.018;4.282;2023-09-08T02:45:02;16.90;99.90
18906;DHT22;9585;51.018;4.282;2023-09-08T02:47:30;16.80;99.90
18906;DHT22;9585;51.018;4.282;2023-09-08T02:49:58;16.70;99.90
18906;DHT22;9585;51.018;4.282;2023-09-08T02:52:27;16.70;99.90
18906;DHT22;9585;51.018;4.282;2023-09-08T03:01:24;16.70;99.90
18906;DHT22;9585;51.018;4.282;2023-09-08T03:03:52;16.70;99.90
18906;DHT22;9585;51.018;4.282;2023-09-08T03:06:20;16.70;99.90
18906;DHT22;9585;51.018;4.282;2023-09-08T03:08:49;16.70;99.90
18906;DHT22;9585;51.018;4.282;2023-09-08T03:11:17;16.70;99.90
18906;DHT22;9585;51.018;4.282;2023-09-08T03:13:45;16.70;99.90
18906;DHT22;9585;51.018;4.282;2023-09-08T03:16:13;16.60;99.90
18906;DHT22;9585;51.018;4.282;2023-09-08T03:18:41;16.60;99.90
18906;DHT22;9585;51.018;4.282;2023-09-08T03:21:09;16.50;99.90
18906;DHT22;9585;51.018;4.282;2023-09-08T03:23:38;16.50;99.90
18906;DHT22;9585;51.018;4.282;2023-09-08T03:26:08;16.50;99.90
18906;DHT22;9585;51.018;4.282;2023-09-08T03:28:36;16.40;99.90
18906;DHT22;9585;51.018;4.282;2023-09-08T03:31:05;16.40;99.90
18906;DHT22;9585;51.018;4.282;2023-09-08T03:33:33;16.30;99.90
18906;DHT22;9585;51.018;4.282;2023-09-08T03:36:00;16.30;99.90
18906;DHT22;9585;51.018;4.282;2023-09-08T03:38:28;16.20;99.90
18906;DHT22;9585;51.018;4.282;2023-09-08T03:40:56;16.30;99.90
18906;DHT22;9585;51.018;4.282;2023-09-08T03:43:25;16.30;99.90
18906;DHT22;9585;51.018;4.282;2023-09-08T03:45:52;16.40;99.90
18906;DHT22;9585;51.018;4.282;2023-09-08T03:48:20;16.30;99.90
18906;DHT22;9585;51.018;4.282;2023-09-08T03:50:48;16.20;99.90
18906;DHT22;9585;51.018;4.282;2023-09-08T03:53:16;16.20;99.90
18906;DHT22;9585;51.018;4.282;2023-09-08T03:55:44;16.30;99.90
18906;DHT22;9585;51.018;4.282;2023-09-08T03:58:12;16.30;99.90
18906;DHT22;9585;51.018;4.282;2023-09-08T04:00:41;16.30;99.90
18906;DHT22;9585;51.018;4.282;2023-09-08T04:03:09;16.30;99.90
18906;DHT22;9585;51.018;4.282;2023-09-08T04:05:36;16.30;99.90
18906;DHT22;9585;51.018;4.282;2023-09-08T04:08:05;16.20;99.90
18906;DHT22;9585;51.018;4.282;2023-09-08T04:10:32;16.20;99.90
18906;DHT22;9585;51.018;4.282;2023-09-08T04:13:00;16.20;99.90
18906;DHT22;9585;51.018;4.282;2023-09-08T04:15:28;16.20;99.90
18906;DHT22;9585;51.018;4.282;2023-09-08T04:17:57;16.30;99.90
18906;DHT22;9585;51.018;4.282;2023-09-08T04:20:25;16.30;99.90
18906;DHT22;9585;51.018;4.282;2023-09-08T04:22:53;16.30;99.90
18906;DHT22;9585;51.018;4.282;2023-09-08T04:25:21;16.20;99.90
18906;DHT22;9585;51.018;4.282;2023-09-08T04:27:48;16.30;99.90
18906;DHT22;9585;51.018;4.282;2023-09-08T04:30:16;16.20;99.90
18906;DHT22;9585;51.018;4.282;2023-09-08T04:32:44;16.20;99.90
18906;DHT22;9585;51.018;4.282;2023-09-08T04:35:14;16.30;99.90
18906;DHT22;9585;51.018;4.282;2023-09-08T04:37:42;16.30;99.90
18906;DHT22;9585;51.018;4.282;2023-09-08T04:40:10;16.30;99.90
18906;DHT22;9585;51.018;4.282;2023-09-08T04:42:37;16.20;99.90
18906;DHT22;9585;51.018;4.282;2023-09-08T04:45:06;16.20;99.90
18906;DHT22;9585;51.018;4.282;2023-09-08T04:47:34;16.20;99.90
18906;DHT22;9585;51.018;4.282;2023-09-08T04:50:01;16.20;99.90
18906;DHT22;9585;51.018;4.282;2023-09-08T04:52:31;16.20;99.90
18906;DHT22;9585;51.018;4.282;2023-09-08T04:54:58;16.20;99.90
18906;DHT22;9585;51.018;4.282;2023-09-08T04:57:26;16.10;99.90
18906;DHT22;9585;51.018;4.282;2023-09-08T04:59:54;16.00;99.90
18906;DHT22;9585;51.018;4.282;2023-09-08T05:02:22;16.00;99.90
18906;DHT22;9585;51.018;4.282;2023-09-08T05:04:50;16.00;99.90
18906;DHT22;9585;51.018;4.282;2023-09-08T05:07:17;16.00;99.90
18906;DHT22;9585;51.018;4.282;2023-09-08T05:09:46;15.90;99.90
18906;DHT22;9585;51.018;4.282;2023-09-08T05:12:14;15.90;99.90
18906;DHT22;9585;51.018;4.282;2023-09-08T05:14:42;15.90;99.90
18906;DHT22;9585;51.018;4.282;2023-09-08T05:17:09;16.00;99.90
18906;DHT22;9585;51.018;4.282;2023-09-08T05:19:37;16.00;99.90
18906;DHT22;9585;51.018;4.282;2023-09-08T05:22:05;16.10;99.90
18906;DHT22;9585;51.018;4.282;2023-09-08T05:24:33;16.00;99.90
18906;DHT22;9585;51.018;4.282;2023-09-08T05:27:02;16.00;99.90
18906;DHT22;9585;51.018;4.282;2023-09-08T05:29:30;16.00;99.90
18906;DHT22;9585;51.018;4.282;2023-09-08T05:31:58;16.00;99.90
18906;DHT22;9585;51.018;4.282;2023-09-08T05:34:27;16.00;99.90
18906;DHT22;9585;51.018;4.282;2023-09-08T05:36:55;16.00;99.90
18906;DHT22;9585;51.018;4.282;2023-09-08T05:39:22;16.10;99.90
18906;DHT22;9585;51.018;4.282;2023-09-08T05:41:50;16.10;99.90
18906;DHT22;9585;51.018;4.282;2023-09-08T05:44:20;16.20;99.90
18906;DHT22;9585;51.018;4.282;2023-09-08T05:46:47;16.20;99.90
18906;DHT22;9585;51.018;4.282;2023-09-08T05:49:15;16.30;99.90
18906;DHT22;9585;51.018;4.282;2023-09-08T05:51:43;16.30;99.90
18906;DHT22;9585;51.018;4.282;2023-09-08T05:54:11;16.40;99.90
18906;DHT22;9585;51.018;4.282;2023-09-08T05:56:39;16.50;99.90
18906;DHT22;9585;51.018;4.282;2023-09-08T05:59:07;16.50;99.90
18906;DHT22;9585;51.018;4.282;2023-09-08T06:01:36;16.90;99.90
18906;DHT22;9585;51.018;4.282;2023-09-08T06:04:05;17.70;99.90
18906;DHT22;9585;51.018;4.282;2023-09-08T06:06:32;18.80;99.90
18906;DHT22;9585;51.018;4.282;2023-09-08T06:09:00;20.00;99.90
18906;DHT22;9585;51.018;4.282;2023-09-08T06:14:50;22.00;99.90
18906;DHT22;9585;51.018;4.282;2023-09-08T06:17:19;22.80;99.90
18906;DHT22;9585;51.018;4.282;2023-09-08T06:19:47;23.40;99.90
18906;DHT22;9585;51.018;4.282;2023-09-08T06:22:15;23.70;99.90
18906;DHT22;9585;51.018;4.282;2023-09-08T06:24:43;24.30;99.90
18906;DHT22;9585;51.018;4.282;2023-09-08T06:27:10;24.90;99.90
18906;DHT22;9585;51.018;4.282;2023-09-08T06:29:39;25.50;99.90
18906;DHT22;9585;51.018;4.282;2023-09-08T06:32:09;26.00;99.90
18906;DHT22;9585;51.018;4.282;2023-09-08T06:34:40;26.60;99.90
18906;DHT22;9585;51.018;4.282;2023-09-08T06:37:21;27.20;99.90
18906;DHT22;9585;51.018;4.282;2023-09-08T06:39:49;27.60;99.90
18906;DHT22;9585;51.018;4.282;2023-09-08T06:42:17;28.00;99.90
18906;DHT22;9585;51.018;4.282;2023-09-08T06:44:44;27.90;99.90
18906;DHT22;9585;51.018;4.282;2023-09-08T06:47:12;28.10;99.90
18906;DHT22;9585;51.018;4.282;2023-09-08T06:49:42;27.80;99.90
18906;DHT22;9585;51.018;4.282;2023-09-08T06:52:12;27.80;99.90
18906;DHT22;9585;51.018;4.282;2023-09-08T06:54:41;28.10;99.90
18906;DHT22;9585;51.018;4.282;2023-09-08T06:57:09;28.00;99.90
18906;DHT22;9585;51.018;4.282;2023-09-08T06:59:38;27.50;99.90
18906;DHT22;9585;51.018;4.282;2023-09-08T07:02:07;27.50;99.90
18906;DHT22;9585;51.018;4.282;2023-09-08T07:04:36;27.70;99.90
18906;DHT22;9585;51.018;4.282;2023-09-08T07:07:20;28.20;99.90
18906;DHT22;9585;51.018;4.282;2023-09-08T07:09:49;28.90;99.90
18906;DHT22;9585;51.018;4.282;2023-09-08T07:12:17;29.30;99.90
18906;DHT22;9585;51.018;4.282;2023-09-08T07:14:44;29.70;99.90
18906;DHT22;9585;51.018;4.282;2023-09-08T07:17:12;30.10;99.90
18906;DHT22;9585;51.018;4.282;2023-09-08T07:19:40;30.40;99.90
18906;DHT22;9585;51.018;4.282;2023-09-08T07:22:09;30.30;99.90
18906;DHT22;9585;51.018;4.282;2023-09-08T07:24:38;29.80;99.90
18906;DHT22;9585;51.018;4.282;2023-09-08T07:27:06;30.30;99.90
18906;DHT22;9585;51.018;4.282;2023-09-08T07:29:33;30.50;99.90
18906;DHT22;9585;51.018;4.282;2023-09-08T07:32:01;30.60;99.90
18906;DHT22;9585;51.018;4.282;2023-09-08T07:34:32;31.00;99.90
18906;DHT22;9585;51.018;4.282;2023-09-08T07:37:01;31.10;99.90
18906;DHT22;9585;51.018;4.282;2023-09-08T07:39:29;31.50;99.90
18906;DHT22;9585;51.018;4.282;2023-09-08T07:42:00;31.20;99.90
18906;DHT22;9585;51.018;4.282;2023-09-08T07:44:28;31.20;99.90
18906;DHT22;9585;51.018;4.282;2023-09-08T07:46:58;31.40;99.90
18906;DHT22;9585;51.018;4.282;2023-09-08T07:49:26;31.70;99.90
18906;DHT22;9585;51.018;4.282;2023-09-08T07:51:55;31.60;99.90
18906;DHT22;9585;51.018;4.282;2023-09-08T07:54:23;31.10;99.90
18906;DHT22;9585;51.018;4.282;2023-09-08T07:56:54;31.00;99.90
18906;DHT22;9585;51.018;4.282;2023-09-08T07:59:25;31.10;99.90
18906;DHT22;9585;51.018;4.282;2023-09-08T08:01:53;31.60;99.90
18906;DHT22;9585;51.018;4.282;2023-09-08T08:04:21;31.90;99.90
18906;DHT22;9585;51.018;4.282;2023-09-08T08:06:52;31.80;99.90
18906;DHT22;9585;51.018;4.282;2023-09-08T08:09:19;32.20;99.90
18906;DHT22;9585;51.018;4.282;2023-09-08T08:11:50;32.50;99.90
18906;DHT22;9585;51.018;4.282;2023-09-08T08:14:18;32.60;99.90
18906;DHT22;9585;51.018;4.282;2023-09-08T08:19:36;33.00;99.90
18906;DHT22;9585;51.018;4.282;2023-09-08T08:22:15;33.20;99.90
18906;DHT22;9585;51.018;4.282;2023-09-08T08:24:43;32.70;99.90
18906;DHT22;9585;51.018;4.282;2023-09-08T08:27:11;32.80;99.90
18906;DHT22;9585;51.018;4.282;2023-09-08T08:29:40;32.70;99.90
18906;DHT22;9585;51.018;4.282;2023-09-08T08:32:10;32.70;99.90
18906;DHT22;9585;51.018;4.282;2023-09-08T08:34:40;33.10;99.90
18906;DHT22;9585;51.018;4.282;2023-09-08T08:37:15;33.60;99.90
18906;DHT22;9585;51.018;4.282;2023-09-08T08:39:42;33.40;99.90
18906;DHT22;9585;51.018;4.282;2023-09-08T08:42:11;33.40;99.90
18906;DHT22;9585;51.018;4.282;2023-09-08T08:44:41;33.20;99.90
18906;DHT22;9585;51.018;4.282;2023-09-08T08:47:14;33.40;99.90
18906;DHT22;9585;51.018;4.282;2023-09-08T08:49:58;33.30;99.90
18906;DHT22;9585;51.018;4.282;2023-09-08T08:52:27;33.00;99.90
18906;DHT22;9585;51.018;4.282;2023-09-08T08:55:00;32.30;99.90
18906;DHT22;9585;51.018;4.282;2023-09-08T08:57:28;32.20;99.90
18906;DHT22;9585;51.018;4.282;2023-09-08T08:59:57;32.00;99.90
18906;DHT22;9585;51.018;4.282;2023-09-08T09:02:26;31.60;99.90
18906;DHT22;9585;51.018;4.282;2023-09-08T09:04:57;31.30;99.90
18906;DHT22;9585;51.018;4.282;2023-09-08T09:07:26;30.90;99.90
18906;DHT22;9585;51.018;4.282;2023-09-08T09:09:55;30.40;99.90
18906;DHT22;9585;51.018;4.282;2023-09-08T09:12:23;29.90;99.90
18906;DHT22;9585;51.018;4.282;2023-09-08T09:14:53;29.50;99.90
18906;DHT22;9585;51.018;4.282;2023-09-08T09:17:21;29.50;99.90
18906;DHT22;9585;51.018;4.282;2023-09-08T09:19:49;29.40;99.90
18906;DHT22;9585;51.018;4.282;2023-09-08T09:22:21;29.30;99.90
18906;DHT22;9585;51.018;4.282;2023-09-08T09:24:49;28.70;99.90
18906;DHT22;9585;51.018;4.282;2023-09-08T09:27:17;28.60;99.90
18906;DHT22;9585;51.018;4.282;2023-09-08T09:29:46;28.30;99.90
18906;DHT22;9585;51.018;4.282;2023-09-08T09:32:14;28.00;99.90
18906;DHT22;9585;51.018;4.282;2023-09-08T09:34:49;28.00;99.90
18906;DHT22;9585;51.018;4.282;2023-09-08T09:37:21;28.10;99.90
18906;DHT22;9585;51.018;4.282;2023-09-08T09:39:49;28.30;99.90
18906;DHT22;9585;51.018;4.282;2023-09-08T09:42:18;28.40;99.90
18906;DHT22;9585;51.018;4.282;2023-09-08T09:44:47;28.40;99.90
18906;DHT22;9585;51.018;4.282;2023-09-08T09:47:16;28.50;99.90
18906;DHT22;9585;51.018;4.282;2023-09-08T09:49:46;28.30;99.90
18906;DHT22;9585;51.018;4.282;2023-09-08T09:52:27;28.50;99.90
18906;DHT22;9585;51.018;4.282;2023-09-08T09:54:59;28.60;99.90
18906;DHT22;9585;51.018;4.282;2023-09-08T09:57:27;28.80;99.90
18906;DHT22;9585;51.018;4.282;2023-09-08T09:59:56;28.80;99.90
18906;DHT22;9585;51.018;4.282;2023-09-08T10:02:26;28.90;99.90
18906;DHT22;9585;51.018;4.282;2023-09-08T10:04:56;29.00;99.90
18906;DHT22;9585;51.018;4.282;2023-09-08T10:07:25;29.10;99.90
18906;DHT22;9585;51.018;4.282;2023-09-08T10:09:54;29.20;99.90
18906;DHT22;9585;51.018;4.282;2023-09-08T10:12:25;29.20;99.90
18906;DHT22;9585;51.018;4.282;2023-09-08T10:14:58;29.20;99.90
18906;DHT22;9585;51.018;4.282;2023-09-08T10:17:30;29.30;99.90
18906;DHT22;9585;51.018;4.282;2023-09-08T10:20:02;29.40;99.90
18906;DHT22;9585;51.018;4.282;2023-09-08T10:22:46;29.60;99.90
18906;DHT22;9585;51.018;4.282;2023-09-08T10:25:21;29.70;99.90
18906;DHT22;9585;51.018;4.282;2023-09-08T10:27:49;29.90;99.90
18906;DHT22;9585;51.018;4.282;2023-09-08T10:30:18;29.90;99.90
18906;DHT22;9585;51.018;4.282;2023-09-08T10:32:57;29.70;99.90
18906;DHT22;9585;51.018;4.282;2023-09-08T10:35:26;29.90;99.90
18906;DHT22;9585;51.018;4.282;2023-09-08T10:38:22;29.80;99.90
18906;DHT22;9585;51.018;4.282;2023-09-08T10:40:51;30.10;99.90
18906;DHT22;9585;51.018;4.282;2023-09-08T10:43:19;30.10;99.90
18906;DHT22;9585;51.018;4.282;2023-09-08T10:45:47;30.00;99.90
18906;DHT22;9585;51.018;4.282;2023-09-08T10:48:15;30.00;99.90
18906;DHT22;9585;51.018;4.282;2023-09-08T10:50:44;30.00;99.90
18906;DHT22;9585;51.018;4.282;2023-09-08T10:53:17;29.90;99.90
18906;DHT22;9585;51.018;4.282;2023-09-08T10:55:46;30.10;99.90
18906;DHT22;9585;51.018;4.282;2023-09-08T10:58:20;30.20;99.90
18906;DHT22;9585;51.018;4.282;2023-09-08T11:00:59;30.20;99.90
18906;DHT22;9585;51.018;4.282;2023-09-08T11:03:29;30.30;99.90
18906;DHT22;9585;51.018;4.282;2023-09-08T11:06:10;30.20;99.90
18906;DHT22;9585;51.018;4.282;2023-09-08T11:08:41;30.30;99.90
18906;DHT22;9585;51.018;4.282;2023-09-08T11:11:10;30.30;99.90
18906;DHT22;9585;51.018;4.282;2023-09-08T11:13:38;30.40;99.90
18906;DHT22;9585;51.018;4.282;2023-09-08T11:16:07;30.60;99.90
18906;DHT22;9585;51.018;4.282;2023-09-08T11:18:35;30.50;99.90
18906;DHT22;9585;51.018;4.282;2023-09-08T11:21:06;30.70;99.90
18906;DHT22;9585;51.018;4.282;2023-09-08T11:23:34;30.80;99.90
18906;DHT22;9585;51.018;4.282;2023-09-08T11:26:04;30.70;99.90
18906;DHT22;9585;51.018;4.282;2023-09-08T11:28:34;30.70;99.90
18906;DHT22;9585;51.018;4.282;2023-09-08T11:31:02;30.80;99.90
18906;DHT22;9585;51.018;4.282;2023-09-08T11:33:34;30.80;99.90
18906;DHT22;9585;51.018;4.282;2023-09-08T11:36:12;30.80;99.90
18906;DHT22;9585;51.018;4.282;2023-09-08T11:38:43;30.60;99.90
18906;DHT22;9585;51.018;4.282;2023-09-08T11:41:13;30.40;99.90
18906;DHT22;9585;51.018;4.282;2023-09-08T11:43:40;30.50;99.90
18906;DHT22;9585;51.018;4.282;2023-09-08T11:46:08;30.50;99.90
18906;DHT22;9585;51.018;4.282;2023-09-08T11:48:36;30.50;99.90
18906;DHT22;9585;51.018;4.282;2023-09-08T11:51:07;30.70;99.90
18906;DHT22;9585;51.018;4.282;2023-09-08T11:53:36;30.80;99.90
18906;DHT22;9585;51.018;4.282;2023-09-08T11:56:05;30.80;99.90
18906;DHT22;9585;51.018;4.282;2023-09-08T11:58:37;30.50;99.90
18906;DHT22;9585;51.018;4.282;2023-09-08T12:01:05;30.70;99.90
18906;DHT22;9585;51.018;4.282;2023-09-08T12:03:33;30.60;99.90
18906;DHT22;9585;51.018;4.282;2023-09-08T12:06:01;30.60;99.90
18906;DHT22;9585;51.018;4.282;2023-09-08T12:08:29;30.80;99.90
18906;DHT22;9585;51.018;4.282;2023-09-08T12:10:58;31.00;99.90
18906;DHT22;9585;51.018;4.282;2023-09-08T12:13:25;31.10;99.90
18906;DHT22;9585;51.018;4.282;2023-09-08T12:15:56;31.20;99.90
18906;DHT22;9585;51.018;4.282;2023-09-08T12:18:38;31.20;99.90
18906;DHT22;9585;51.018;4.282;2023-09-08T12:21:06;31.10;99.90
18906;DHT22;9585;51.018;4.282;2023-09-08T12:23:34;31.00;99.90
18906;DHT22;9585;51.018;4.282;2023-09-08T12:26:14;30.90;99.90
18906;DHT22;9585;51.018;4.282;2023-09-08T12:28:43;30.90;99.90
18906;DHT22;9585;51.018;4.282;2023-09-08T12:31:13;31.00;99.90
18906;DHT22;9585;51.018;4.282;2023-09-08T12:33:42;31.00;99.90
18906;DHT22;9585;51.018;4.282;2023-09-08T12:36:10;31.10;99.90
18906;DHT22;9585;51.018;4.282;2023-09-08T12:38:40;30.90;99.90
18906;DHT22;9585;51.018;4.282;2023-09-08T12:41:08;30.90;99.90
18906;DHT22;9585;51.018;4.282;2023-09-08T12:43:35;31.10;99.90
18906;DHT22;9585;51.018;4.282;2023-09-08T12:46:03;31.10;99.90
18906;DHT22;9585;51.018;4.282;2023-09-08T12:48:32;31.10;99.90
18906;DHT22;9585;51.018;4.282;2023-09-08T12:51:00;31.10;99.90
18906;DHT22;9585;51.018;4.282;2023-09-08T12:53:32;31.20;99.90
18906;DHT22;9585;51.018;4.282;2023-09-08T12:56:00;31.20;99.90
18906;DHT22;9585;51.018;4.282;2023-09-08T12:58:28;31.20;99.90
18906;DHT22;9585;51.018;4.282;2023-09-08T13:00:56;31.00;99.90
18906;DHT22;9585;51.018;4.282;2023-09-08T13:03:24;31.00;99.90
18906;DHT22;9585;51.018;4.282;2023-09-08T13:05:54;31.00;99.90
18906;DHT22;9585;51.018;4.282;2023-09-08T13:08:43;30.90;99.90
18906;DHT22;9585;51.018;4.282;2023-09-08T13:11:11;30.80;99.90
18906;DHT22;9585;51.018;4.282;2023-09-08T13:13:39;30.70;99.90
18906;DHT22;9585;51.018;4.282;2023-09-08T13:16:07;30.70;99.90
18906;DHT22;9585;51.018;4.282;2023-09-08T13:18:35;30.70;99.90
18906;DHT22;9585;51.018;4.282;2023-09-08T13:21:06;30.70;99.90
18906;DHT22;9585;51.018;4.282;2023-09-08T13:23:34;30.80;99.90
18906;DHT22;9585;51.018;4.282;2023-09-08T13:26:01;30.70;99.90
18906;DHT22;9585;51.018;4.282;2023-09-08T13:28:29;30.70;99.90
18906;DHT22;9585;51.018;4.282;2023-09-08T13:30:57;30.80;99.90
18906;DHT22;9585;51.018;4.282;2023-09-08T13:33:24;30.90;99.90
18906;DHT22;9585;51.018;4.282;2023-09-08T13:35:52;30.90;99.90
18906;DHT22;9585;51.018;4.282;2023-09-08T13:38:22;30.80;99.90
18906;DHT22;9585;51.018;4.282;2023-09-08T13:40:50;30.80;99.90
18906;DHT22;9585;51.018;4.282;2023-09-08T13:43:18;30.90;99.90
18906;DHT22;9585;51.018;4.282;2023-09-08T13:45:46;30.80;99.90
18906;DHT22;9585;51.018;4.282;2023-09-08T13:48:14;30.80;99.90
18906;DHT22;9585;51.018;4.282;2023-09-08T13:50:42;30.80;99.90
18906;DHT22;9585;51.018;4.282;2023-09-08T13:53:09;30.80;99.90
18906;DHT22;9585;51.018;4.282;2023-09-08T13:55:39;30.80;99.90
18906;DHT22;9585;51.018;4.282;2023-09-08T13:58:07;30.70;99.90
18906;DHT22;9585;51.018;4.282;2023-09-08T14:00:36;30.60;99.90
18906;DHT22;9585;51.018;4.282;2023-09-08T14:03:05;30.60;99.90
18906;DHT22;9585;51.018;4.282;2023-09-08T14:05:33;30.50;99.90
18906;DHT22;9585;51.018;4.282;2023-09-08T14:08:00;30.50;99.90
18906;DHT22;9585;51.018;4.282;2023-09-08T14:10:28;30.50;99.90
18906;DHT22;9585;51.018;4.282;2023-09-08T14:12:57;30.50;99.90
18906;DHT22;9585;51.018;4.282;2023-09-08T14:15:25;30.40;99.90
18906;DHT22;9585;51.018;4.282;2023-09-08T14:17:53;30.40;99.90
18906;DHT22;9585;51.018;4.282;2023-09-08T14:20:21;30.30;99.90
18906;DHT22;9585;51.018;4.282;2023-09-08T14:22:49;30.20;99.90
18906;DHT22;9585;51.018;4.282;2023-09-08T14:25:17;30.10;99.90
18906;DHT22;9585;51.018;4.282;2023-09-08T14:27:44;30.10;99.90
18906;DHT22;9585;51.018;4.282;2023-09-08T14:30:14;30.20;99.90
18906;DHT22;9585;51.018;4.282;2023-09-08T14:32:42;30.10;99.90
18906;DHT22;9585;51.018;4.282;2023-09-08T14:35:10;30.10;99.90
18906;DHT22;9585;51.018;4.282;2023-09-08T14:37:38;30.10;99.90
18906;DHT22;9585;51.018;4.282;2023-09-08T14:40:07;30.20;99.90
18906;DHT22;9585;51.018;4.282;2023-09-08T14:42:35;30.20;99.90
18906;DHT22;9585;51.018;4.282;2023-09-08T14:45:04;30.20;99.90
18906;DHT22;9585;51.018;4.282;2023-09-08T14:47:34;30.20;99.90
18906;DHT22;9585;51.018;4.282;2023-09-08T14:50:03;30.10;99.90
18906;DHT22;9585;51.018;4.282;2023-09-08T14:52:30;30.10;99.90
18906;DHT22;9585;51.018;4.282;2023-09-08T14:54:58;30.10;99.90
18906;DHT22;9585;51.018;4.282;2023-09-08T14:57:26;30.10;99.90
18906;DHT22;9585;51.018;4.282;2023-09-08T14:59:54;30.10;99.90
18906;DHT22;9585;51.018;4.282;2023-09-08T15:02:22;30.10;99.90
18906;DHT22;9585;51.018;4.282;2023-09-08T15:04:51;30.00;99.90
18906;DHT22;9585;51.018;4.282;2023-09-08T15:07:19;30.00;99.90
18906;DHT22;9585;51.018;4.282;2023-09-08T15:09:47;29.90;99.90
18906;DHT22;9585;51.018;4.282;2023-09-08T15:12:16;29.90;99.90
18906;DHT22;9585;51.018;4.282;2023-09-08T15:14:44;29.90;99.90
18906;DHT22;9585;51.018;4.282;2023-09-08T15:17:12;29.90;99.90
18906;DHT22;9585;51.018;4.282;2023-09-08T15:19:39;29.80;99.90
18906;DHT22;9585;51.018;4.282;2023-09-08T15:22:09;29.80;99.90
18906;DHT22;9585;51.018;4.282;2023-09-08T15:24:38;29.80;99.90
18906;DHT22;9585;51.018;4.282;2023-09-08T15:27:06;29.80;99.90
18906;DHT22;9585;51.018;4.282;2023-09-08T15:29:34;29.80;99.90
18906;DHT22;9585;51.018;4.282;2023-09-08T15:32:02;29.80;99.90
18906;DHT22;9585;51.018;4.282;2023-09-08T15:34:30;29.70;99.90
18906;DHT22;9585;51.018;4.282;2023-09-08T15:36:58;29.60;99.90
18906;DHT22;9585;51.018;4.282;2023-09-08T15:39:27;29.60;99.90
18906;DHT22;9585;51.018;4.282;2023-09-08T15:41:55;29.60;99.90
18906;DHT22;9585;51.018;4.282;2023-09-08T15:44:23;29.60;99.90
18906;DHT22;9585;51.018;4.282;2023-09-08T15:46:50;29.60;99.90
18906;DHT22;9585;51.018;4.282;2023-09-08T15:49:18;29.60;99.90
18906;DHT22;9585;51.018;4.282;2023-09-08T15:51:46;29.60;99.90
18906;DHT22;9585;51.018;4.282;2023-09-08T15:54:13;29.60;99.90
18906;DHT22;9585;51.018;4.282;2023-09-08T15:56:44;29.60;99.90
18906;DHT22;9585;51.018;4.282;2023-09-08T15:59:12;29.60;99.90
18906;DHT22;9585;51.018;4.282;2023-09-08T16:01:41;29.60;99.90
18906;DHT22;9585;51.018;4.282;2023-09-08T16:04:08;29.50;99.90
18906;DHT22;9585;51.018;4.282;2023-09-08T16:06:36;29.50;99.90
18906;DHT22;9585;51.018;4.282;2023-09-08T16:09:05;29.50;99.90